sensor_id;sensor_type;location;lat;lon;timestamp;P1;durP1;ratioP1;P2;durP2;ratioP2
1178;SDS011;578;48.408;10.004;2024-03-02T00:00:26;91.57;;;37.63;;
1178;SDS011;578;48.408;10.004;2024-03-02T00:02:27;76.03;;;35.53;;
1178;SDS011;578;48.408;10.004;2024-03-02T00:04:30;63.20;;;35.70;;
1178;SDS011;578;48.408;10.004;2024-03-02T00:06:32;70.18;;;38.10;;
1178;SDS011;578;48.408;10.004;2024-03-02T00:08:34;69.13;;;38.13;;
1178;SDS011;578;48.408;10.004;2024-03-02T00:10:36;75.75;;;38.47;;
1178;SDS011;578;48.408;10.004;2024-03-02T00:12:40;83.78;;;40.25;;
1178;SDS011;578;48.408;10.004;2024-03-02T00:14:41;103.40;;;41.85;;
1178;SDS011;578;48.408;10.004;2024-03-02T00:16:43;126.25;;;47.67;;
1178;SDS011;578;48.408;10.004;2024-03-02T00:18:45;152.60;;;51.92;;
1178;SDS011;578;48.408;10.004;2024-03-02T00:20:48;163.57;;;53.85;;
1178;SDS011;578;48.408;10.004;2024-03-02T00:23:01;108.18;;;43.55;;
1178;SDS011;578;48.408;10.004;2024-03-02T00:25:05;89.10;;;42.75;;
1178;SDS011;578;48.408;10.004;2024-03-02T00:27:08;96.72;;;41.42;;
1178;SDS011;578;48.408;10.004;2024-03-02T00:29:15;82.93;;;40.97;;
1178;SDS011;578;48.408;10.004;2024-03-02T00:31:19;64.07;;;37.20;;
1178;SDS011;578;48.408;10.004;2024-03-02T00:33:21;67.63;;;36.47;;
1178;SDS011;578;48.408;10.004;2024-03-02T00:35:22;96.15;;;39.78;;
1178;SDS011;578;48.408;10.004;2024-03-02T00:37:26;77.55;;;37.58;;
1178;SDS011;578;48.408;10.004;2024-03-02T00:39:28;59.80;;;34.55;;
1178;SDS011;578;48.408;10.004;2024-03-02T00:41:31;70.15;;;36.10;;
1178;SDS011;578;48.408;10.004;2024-03-02T00:43:42;83.13;;;36.65;;
1178;SDS011;578;48.408;10.004;2024-03-02T00:45:44;60.40;;;34.28;;
1178;SDS011;578;48.408;10.004;2024-03-02T00:47:46;60.85;;;33.97;;
1178;SDS011;578;48.408;10.004;2024-03-02T00:49:48;72.75;;;35.17;;
1178;SDS011;578;48.408;10.004;2024-03-02T00:51:50;63.78;;;34.40;;
1178;SDS011;578;48.408;10.004;2024-03-02T00:53:57;73.30;;;35.30;;
1178;SDS011;578;48.408;10.004;2024-03-02T00:56:00;79.57;;;37.33;;
1178;SDS011;578;48.408;10.004;2024-03-02T00:58:02;75.70;;;36.25;;
1178;SDS011;578;48.408;10.004;2024-03-02T01:00:05;64.43;;;35.45;;
1178;SDS011;578;48.408;10.004;2024-03-02T01:02:12;82.47;;;36.88;;
1178;SDS011;578;48.408;10.004;2024-03-02T01:04:13;86.78;;;38.40;;
1178;SDS011;578;48.408;10.004;2024-03-02T01:06:14;71.53;;;37.40;;
1178;SDS011;578;48.408;10.004;2024-03-02T01:08:16;58.42;;;35.50;;
1178;SDS011;578;48.408;10.004;2024-03-02T01:10:18;58.73;;;35.23;;
1178;SDS011;578;48.408;10.004;2024-03-02T01:12:20;66.40;;;33.95;;
1178;SDS011;578;48.408;10.004;2024-03-02T01:14:22;59.70;;;34.67;;
1178;SDS011;578;48.408;10.004;2024-03-02T01:16:24;62.22;;;33.50;;
1178;SDS011;578;48.408;10.004;2024-03-02T01:18:24;77.87;;;38.30;;
1178;SDS011;578;48.408;10.004;2024-03-02T01:20:26;82.90;;;36.85;;
1178;SDS011;578;48.408;10.004;2024-03-02T01:22:27;54.73;;;33.10;;
1178;SDS011;578;48.408;10.004;2024-03-02T01:24:29;68.90;;;35.25;;
1178;SDS011;578;48.408;10.004;2024-03-02T01:26:32;59.40;;;31.55;;
1178;SDS011;578;48.408;10.004;2024-03-02T01:28:33;53.60;;;34.15;;
1178;SDS011;578;48.408;10.004;2024-03-02T01:30:35;58.80;;;33.30;;
1178;SDS011;578;48.408;10.004;2024-03-02T01:32:37;64.85;;;33.88;;
1178;SDS011;578;48.408;10.004;2024-03-02T01:34:39;62.45;;;34.95;;
1178;SDS011;578;48.408;10.004;2024-03-02T01:36:39;72.60;;;38.10;;
1178;SDS011;578;48.408;10.004;2024-03-02T01:38:41;66.65;;;37.88;;
1178;SDS011;578;48.408;10.004;2024-03-02T01:40:43;66.25;;;35.15;;
1178;SDS011;578;48.408;10.004;2024-03-02T01:42:46;120.63;;;43.35;;
1178;SDS011;578;48.408;10.004;2024-03-02T01:44:48;91.82;;;38.70;;
1178;SDS011;578;48.408;10.004;2024-03-02T01:46:50;58.92;;;34.50;;
1178;SDS011;578;48.408;10.004;2024-03-02T01:48:52;57.22;;;33.80;;
1178;SDS011;578;48.408;10.004;2024-03-02T01:50:53;73.90;;;36.88;;
1178;SDS011;578;48.408;10.004;2024-03-02T01:52:56;68.88;;;34.95;;
1178;SDS011;578;48.408;10.004;2024-03-02T01:54:58;74.50;;;35.97;;
1178;SDS011;578;48.408;10.004;2024-03-02T01:57:00;72.50;;;36.75;;
1178;SDS011;578;48.408;10.004;2024-03-02T01:59:03;76.53;;;39.22;;
1178;SDS011;578;48.408;10.004;2024-03-02T02:01:05;64.32;;;35.80;;
1178;SDS011;578;48.408;10.004;2024-03-02T02:03:06;59.67;;;36.85;;
1178;SDS011;578;48.408;10.004;2024-03-02T02:05:08;68.95;;;37.05;;
1178;SDS011;578;48.408;10.004;2024-03-02T02:07:09;78.97;;;41.27;;
1178;SDS011;578;48.408;10.004;2024-03-02T02:09:11;74.15;;;39.33;;
1178;SDS011;578;48.408;10.004;2024-03-02T02:11:14;101.85;;;44.00;;
1178;SDS011;578;48.408;10.004;2024-03-02T02:13:16;88.68;;;43.85;;
1178;SDS011;578;48.408;10.004;2024-03-02T02:15:22;92.53;;;42.40;;
1178;SDS011;578;48.408;10.004;2024-03-02T02:17:25;92.45;;;41.17;;
1178;SDS011;578;48.408;10.004;2024-03-02T02:19:27;69.18;;;38.28;;
1178;SDS011;578;48.408;10.004;2024-03-02T02:21:30;72.82;;;40.53;;
1178;SDS011;578;48.408;10.004;2024-03-02T02:23:31;97.03;;;41.92;;
1178;SDS011;578;48.408;10.004;2024-03-02T02:25:33;72.95;;;37.25;;
1178;SDS011;578;48.408;10.004;2024-03-02T02:27:34;59.37;;;34.87;;
1178;SDS011;578;48.408;10.004;2024-03-02T02:29:36;57.65;;;35.97;;
1178;SDS011;578;48.408;10.004;2024-03-02T02:31:37;50.97;;;34.83;;
1178;SDS011;578;48.408;10.004;2024-03-02T02:33:39;50.15;;;33.15;;
1178;SDS011;578;48.408;10.004;2024-03-02T02:35:41;43.38;;;32.95;;
1178;SDS011;578;48.408;10.004;2024-03-02T02:37:44;55.55;;;35.15;;
1178;SDS011;578;48.408;10.004;2024-03-02T02:39:46;55.63;;;34.80;;
1178;SDS011;578;48.408;10.004;2024-03-02T02:41:48;60.13;;;36.40;;
1178;SDS011;578;48.408;10.004;2024-03-02T02:43:50;54.42;;;35.55;;
1178;SDS011;578;48.408;10.004;2024-03-02T02:45:52;61.70;;;35.63;;
1178;SDS011;578;48.408;10.004;2024-03-02T02:47:54;62.63;;;37.28;;
1178;SDS011;578;48.408;10.004;2024-03-02T02:49:56;70.43;;;37.42;;
1178;SDS011;578;48.408;10.004;2024-03-02T02:51:57;71.90;;;37.20;;
1178;SDS011;578;48.408;10.004;2024-03-02T02:54:00;79.53;;;40.15;;
1178;SDS011;578;48.408;10.004;2024-03-02T02:56:02;72.97;;;37.53;;
1178;SDS011;578;48.408;10.004;2024-03-02T02:58:05;53.33;;;33.95;;
1178;SDS011;578;48.408;10.004;2024-03-02T03:00:07;56.00;;;34.30;;
1178;SDS011;578;48.408;10.004;2024-03-02T03:02:14;61.13;;;36.65;;
1178;SDS011;578;48.408;10.004;2024-03-02T03:04:15;67.38;;;37.17;;
1178;SDS011;578;48.408;10.004;2024-03-02T03:06:17;81.40;;;41.22;;
1178;SDS011;578;48.408;10.004;2024-03-02T03:08:19;64.65;;;37.83;;
1178;SDS011;578;48.408;10.004;2024-03-02T03:10:21;60.57;;;33.73;;
1178;SDS011;578;48.408;10.004;2024-03-02T03:12:25;74.10;;;37.50;;
1178;SDS011;578;48.408;10.004;2024-03-02T03:14:27;80.95;;;39.47;;
1178;SDS011;578;48.408;10.004;2024-03-02T03:16:29;70.53;;;39.55;;
1178;SDS011;578;48.408;10.004;2024-03-02T03:18:31;61.78;;;37.95;;
1178;SDS011;578;48.408;10.004;2024-03-02T03:20:33;100.55;;;42.72;;
1178;SDS011;578;48.408;10.004;2024-03-02T03:22:34;65.28;;;38.25;;
1178;SDS011;578;48.408;10.004;2024-03-02T03:24:36;80.38;;;40.20;;
1178;SDS011;578;48.408;10.004;2024-03-02T03:26:39;78.65;;;38.67;;
1178;SDS011;578;48.408;10.004;2024-03-02T03:28:41;62.55;;;39.90;;
1178;SDS011;578;48.408;10.004;2024-03-02T03:30:43;67.57;;;38.60;;
1178;SDS011;578;48.408;10.004;2024-03-02T03:32:44;67.17;;;40.10;;
1178;SDS011;578;48.408;10.004;2024-03-02T03:34:48;55.25;;;34.15;;
1178;SDS011;578;48.408;10.004;2024-03-02T03:36:49;58.47;;;37.53;;
1178;SDS011;578;48.408;10.004;2024-03-02T03:38:51;65.60;;;36.17;;
1178;SDS011;578;48.408;10.004;2024-03-02T03:40:53;62.92;;;37.00;;
1178;SDS011;578;48.408;10.004;2024-03-02T03:42:56;64.00;;;37.78;;
1178;SDS011;578;48.408;10.004;2024-03-02T03:44:57;64.25;;;38.78;;
1178;SDS011;578;48.408;10.004;2024-03-02T03:46:59;69.13;;;39.95;;
1178;SDS011;578;48.408;10.004;2024-03-02T03:49:02;66.68;;;38.03;;
1178;SDS011;578;48.408;10.004;2024-03-02T03:51:05;61.05;;;36.83;;
1178;SDS011;578;48.408;10.004;2024-03-02T03:53:06;69.32;;;38.88;;
1178;SDS011;578;48.408;10.004;2024-03-02T03:55:08;68.90;;;38.08;;
1178;SDS011;578;48.408;10.004;2024-03-02T03:57:10;65.82;;;37.90;;
1178;SDS011;578;48.408;10.004;2024-03-02T03:59:13;66.13;;;38.38;;
1178;SDS011;578;48.408;10.004;2024-03-02T04:01:15;61.90;;;36.97;;
1178;SDS011;578;48.408;10.004;2024-03-02T04:03:16;112.22;;;42.67;;
1178;SDS011;578;48.408;10.004;2024-03-02T04:05:18;73.28;;;39.70;;
1178;SDS011;578;48.408;10.004;2024-03-02T04:07:19;98.87;;;43.77;;
1178;SDS011;578;48.408;10.004;2024-03-02T04:09:21;74.30;;;39.92;;
1178;SDS011;578;48.408;10.004;2024-03-02T04:11:23;79.95;;;40.58;;
1178;SDS011;578;48.408;10.004;2024-03-02T04:13:25;58.33;;;36.92;;
1178;SDS011;578;48.408;10.004;2024-03-02T04:15:28;87.95;;;40.70;;
1178;SDS011;578;48.408;10.004;2024-03-02T04:17:29;65.43;;;38.95;;
1178;SDS011;578;48.408;10.004;2024-03-02T04:19:33;60.03;;;37.28;;
1178;SDS011;578;48.408;10.004;2024-03-02T04:21:35;71.93;;;39.72;;
1178;SDS011;578;48.408;10.004;2024-03-02T04:23:37;68.60;;;37.97;;
1178;SDS011;578;48.408;10.004;2024-03-02T04:25:39;59.05;;;34.92;;
1178;SDS011;578;48.408;10.004;2024-03-02T04:27:41;74.07;;;38.17;;
1178;SDS011;578;48.408;10.004;2024-03-02T04:29:42;91.45;;;41.72;;
1178;SDS011;578;48.408;10.004;2024-03-02T04:31:44;67.00;;;36.33;;
1178;SDS011;578;48.408;10.004;2024-03-02T04:33:46;63.85;;;38.25;;
1178;SDS011;578;48.408;10.004;2024-03-02T04:35:48;81.63;;;37.70;;
1178;SDS011;578;48.408;10.004;2024-03-02T04:37:50;74.75;;;40.70;;
1178;SDS011;578;48.408;10.004;2024-03-02T04:39:51;81.53;;;41.28;;
1178;SDS011;578;48.408;10.004;2024-03-02T04:41:52;73.23;;;39.83;;
1178;SDS011;578;48.408;10.004;2024-03-02T04:43:54;70.65;;;39.63;;
1178;SDS011;578;48.408;10.004;2024-03-02T04:45:56;64.05;;;36.30;;
1178;SDS011;578;48.408;10.004;2024-03-02T04:47:59;67.47;;;39.25;;
1178;SDS011;578;48.408;10.004;2024-03-02T04:50:01;57.08;;;36.85;;
1178;SDS011;578;48.408;10.004;2024-03-02T04:52:03;54.45;;;36.55;;
1178;SDS011;578;48.408;10.004;2024-03-02T04:54:05;61.97;;;36.55;;
1178;SDS011;578;48.408;10.004;2024-03-02T04:56:07;75.88;;;39.28;;
1178;SDS011;578;48.408;10.004;2024-03-02T04:58:28;68.50;;;37.55;;
1178;SDS011;578;48.408;10.004;2024-03-02T05:00:29;149.00;;;45.65;;
1178;SDS011;578;48.408;10.004;2024-03-02T05:02:31;95.45;;;40.38;;
1178;SDS011;578;48.408;10.004;2024-03-02T05:04:34;63.53;;;38.70;;
1178;SDS011;578;48.408;10.004;2024-03-02T05:06:36;60.38;;;36.42;;
1178;SDS011;578;48.408;10.004;2024-03-02T05:08:38;84.78;;;41.75;;
1178;SDS011;578;48.408;10.004;2024-03-02T05:10:40;54.85;;;35.10;;
1178;SDS011;578;48.408;10.004;2024-03-02T05:12:42;55.78;;;35.10;;
1178;SDS011;578;48.408;10.004;2024-03-02T05:14:59;55.70;;;34.90;;
1178;SDS011;578;48.408;10.004;2024-03-02T05:17:00;45.88;;;31.75;;
1178;SDS011;578;48.408;10.004;2024-03-02T05:19:02;66.85;;;36.33;;
1178;SDS011;578;48.408;10.004;2024-03-02T05:21:08;56.47;;;36.00;;
1178;SDS011;578;48.408;10.004;2024-03-02T05:23:09;55.60;;;35.03;;
1178;SDS011;578;48.408;10.004;2024-03-02T05:25:11;48.28;;;35.22;;
1178;SDS011;578;48.408;10.004;2024-03-02T05:27:13;71.53;;;39.28;;
1178;SDS011;578;48.408;10.004;2024-03-02T05:29:15;50.20;;;35.08;;
1178;SDS011;578;48.408;10.004;2024-03-02T05:31:16;62.55;;;36.33;;
1178;SDS011;578;48.408;10.004;2024-03-02T05:33:17;58.45;;;35.15;;
1178;SDS011;578;48.408;10.004;2024-03-02T05:35:22;53.00;;;33.88;;
1178;SDS011;578;48.408;10.004;2024-03-02T05:37:24;50.43;;;34.60;;
1178;SDS011;578;48.408;10.004;2024-03-02T05:39:26;45.63;;;32.17;;
1178;SDS011;578;48.408;10.004;2024-03-02T05:41:28;54.60;;;34.58;;
1178;SDS011;578;48.408;10.004;2024-03-02T05:43:28;47.03;;;32.93;;
1178;SDS011;578;48.408;10.004;2024-03-02T05:45:30;45.28;;;32.30;;
1178;SDS011;578;48.408;10.004;2024-03-02T05:47:32;51.25;;;33.58;;
1178;SDS011;578;48.408;10.004;2024-03-02T05:49:35;76.72;;;37.85;;
1178;SDS011;578;48.408;10.004;2024-03-02T05:51:37;51.25;;;36.30;;
1178;SDS011;578;48.408;10.004;2024-03-02T05:53:40;57.45;;;34.92;;
1178;SDS011;578;48.408;10.004;2024-03-02T05:55:42;65.47;;;35.25;;
1178;SDS011;578;48.408;10.004;2024-03-02T05:57:42;67.30;;;36.40;;
1178;SDS011;578;48.408;10.004;2024-03-02T05:59:59;55.85;;;34.70;;
1178;SDS011;578;48.408;10.004;2024-03-02T06:02:01;104.80;;;40.42;;
1178;SDS011;578;48.408;10.004;2024-03-02T06:04:02;57.22;;;35.28;;
1178;SDS011;578;48.408;10.004;2024-03-02T06:06:04;67.10;;;35.20;;
1178;SDS011;578;48.408;10.004;2024-03-02T06:08:06;87.25;;;36.90;;
1178;SDS011;578;48.408;10.004;2024-03-02T06:10:09;65.75;;;35.88;;
1178;SDS011;578;48.408;10.004;2024-03-02T06:12:11;83.55;;;39.95;;
1178;SDS011;578;48.408;10.004;2024-03-02T06:14:13;57.00;;;34.50;;
1178;SDS011;578;48.408;10.004;2024-03-02T06:16:15;84.43;;;38.72;;
1178;SDS011;578;48.408;10.004;2024-03-02T06:18:16;82.60;;;37.15;;
1178;SDS011;578;48.408;10.004;2024-03-02T06:20:17;76.20;;;37.40;;
1178;SDS011;578;48.408;10.004;2024-03-02T06:22:19;102.60;;;39.92;;
1178;SDS011;578;48.408;10.004;2024-03-02T06:24:21;78.63;;;37.42;;
1178;SDS011;578;48.408;10.004;2024-03-02T06:26:24;78.63;;;39.38;;
1178;SDS011;578;48.408;10.004;2024-03-02T06:28:26;82.82;;;38.83;;
1178;SDS011;578;48.408;10.004;2024-03-02T06:30:27;69.87;;;34.37;;
1178;SDS011;578;48.408;10.004;2024-03-02T06:32:29;119.05;;;41.35;;
1178;SDS011;578;48.408;10.004;2024-03-02T06:34:31;85.60;;;37.08;;
1178;SDS011;578;48.408;10.004;2024-03-02T06:36:32;64.60;;;38.30;;
1178;SDS011;578;48.408;10.004;2024-03-02T06:38:33;89.82;;;35.83;;
1178;SDS011;578;48.408;10.004;2024-03-02T06:40:35;81.65;;;36.05;;
1178;SDS011;578;48.408;10.004;2024-03-02T06:42:41;105.57;;;38.80;;
1178;SDS011;578;48.408;10.004;2024-03-02T06:44:42;59.17;;;34.53;;
1178;SDS011;578;48.408;10.004;2024-03-02T06:46:44;62.08;;;37.05;;
1178;SDS011;578;48.408;10.004;2024-03-02T06:48:46;70.15;;;35.85;;
1178;SDS011;578;48.408;10.004;2024-03-02T06:50:48;59.28;;;34.95;;
1178;SDS011;578;48.408;10.004;2024-03-02T06:52:50;53.85;;;34.22;;
1178;SDS011;578;48.408;10.004;2024-03-02T06:54:52;63.00;;;35.00;;
1178;SDS011;578;48.408;10.004;2024-03-02T06:56:52;59.83;;;36.07;;
1178;SDS011;578;48.408;10.004;2024-03-02T06:58:55;65.68;;;36.42;;
1178;SDS011;578;48.408;10.004;2024-03-02T07:00:57;68.72;;;36.92;;
1178;SDS011;578;48.408;10.004;2024-03-02T07:03:00;60.17;;;34.60;;
1178;SDS011;578;48.408;10.004;2024-03-02T07:05:02;59.88;;;34.95;;
1178;SDS011;578;48.408;10.004;2024-03-02T07:07:04;59.25;;;34.70;;
1178;SDS011;578;48.408;10.004;2024-03-02T07:09:05;51.22;;;33.20;;
1178;SDS011;578;48.408;10.004;2024-03-02T07:11:10;54.80;;;33.58;;
1178;SDS011;578;48.408;10.004;2024-03-02T07:13:11;54.73;;;32.57;;
1178;SDS011;578;48.408;10.004;2024-03-02T07:15:14;46.45;;;31.00;;
1178;SDS011;578;48.408;10.004;2024-03-02T07:17:33;39.47;;;28.30;;
1178;SDS011;578;48.408;10.004;2024-03-02T07:19:37;45.55;;;30.75;;
1178;SDS011;578;48.408;10.004;2024-03-02T07:21:39;54.33;;;32.72;;
1178;SDS011;578;48.408;10.004;2024-03-02T07:23:42;51.78;;;32.63;;
1178;SDS011;578;48.408;10.004;2024-03-02T07:25:42;48.37;;;29.87;;
1178;SDS011;578;48.408;10.004;2024-03-02T07:27:44;46.33;;;30.75;;
1178;SDS011;578;48.408;10.004;2024-03-02T07:29:46;40.28;;;28.85;;
1178;SDS011;578;48.408;10.004;2024-03-02T07:31:49;43.10;;;29.13;;
1178;SDS011;578;48.408;10.004;2024-03-02T07:33:51;45.20;;;30.33;;
1178;SDS011;578;48.408;10.004;2024-03-02T07:35:53;41.67;;;29.40;;
1178;SDS011;578;48.408;10.004;2024-03-02T07:37:55;44.03;;;29.08;;
1178;SDS011;578;48.408;10.004;2024-03-02T07:39:57;47.38;;;31.17;;
1178;SDS011;578;48.408;10.004;2024-03-02T07:41:59;46.63;;;30.50;;
1178;SDS011;578;48.408;10.004;2024-03-02T07:44:01;43.20;;;29.55;;
1178;SDS011;578;48.408;10.004;2024-03-02T07:46:02;46.42;;;28.08;;
1178;SDS011;578;48.408;10.004;2024-03-02T07:48:06;46.15;;;28.80;;
1178;SDS011;578;48.408;10.004;2024-03-02T07:50:08;39.95;;;32.17;;
1178;SDS011;578;48.408;10.004;2024-03-02T07:52:10;42.25;;;29.92;;
1178;SDS011;578;48.408;10.004;2024-03-02T07:54:12;49.75;;;30.33;;
1178;SDS011;578;48.408;10.004;2024-03-02T07:56:14;42.88;;;30.40;;
1178;SDS011;578;48.408;10.004;2024-03-02T07:58:22;40.17;;;29.40;;
1178;SDS011;578;48.408;10.004;2024-03-02T08:00:23;35.55;;;27.08;;
1178;SDS011;578;48.408;10.004;2024-03-02T08:02:26;43.33;;;29.38;;
1178;SDS011;578;48.408;10.004;2024-03-02T08:04:29;36.72;;;26.38;;
1178;SDS011;578;48.408;10.004;2024-03-02T08:06:31;44.10;;;28.63;;
1178;SDS011;578;48.408;10.004;2024-03-02T08:08:32;35.83;;;26.55;;
1178;SDS011;578;48.408;10.004;2024-03-02T08:10:34;40.85;;;28.30;;
1178;SDS011;578;48.408;10.004;2024-03-02T08:12:36;37.92;;;28.60;;
1178;SDS011;578;48.408;10.004;2024-03-02T08:14:38;36.25;;;25.10;;
1178;SDS011;578;48.408;10.004;2024-03-02T08:16:40;35.83;;;26.52;;
1178;SDS011;578;48.408;10.004;2024-03-02T08:18:42;37.67;;;26.95;;
1178;SDS011;578;48.408;10.004;2024-03-02T08:20:45;37.95;;;26.00;;
1178;SDS011;578;48.408;10.004;2024-03-02T08:22:47;44.67;;;27.05;;
1178;SDS011;578;48.408;10.004;2024-03-02T08:24:49;36.85;;;26.65;;
1178;SDS011;578;48.408;10.004;2024-03-02T08:26:50;38.90;;;28.20;;
1178;SDS011;578;48.408;10.004;2024-03-02T08:28:54;35.72;;;26.63;;
1178;SDS011;578;48.408;10.004;2024-03-02T08:30:56;36.35;;;26.45;;
1178;SDS011;578;48.408;10.004;2024-03-02T08:32:58;37.70;;;24.67;;
1178;SDS011;578;48.408;10.004;2024-03-02T08:35:00;38.40;;;26.30;;
1178;SDS011;578;48.408;10.004;2024-03-02T08:37:03;42.47;;;28.27;;
1178;SDS011;578;48.408;10.004;2024-03-02T08:39:05;52.15;;;28.77;;
1178;SDS011;578;48.408;10.004;2024-03-02T08:41:15;47.33;;;29.60;;
1178;SDS011;578;48.408;10.004;2024-03-02T08:43:17;45.40;;;29.48;;
1178;SDS011;578;48.408;10.004;2024-03-02T08:45:19;40.13;;;31.20;;
1178;SDS011;578;48.408;10.004;2024-03-02T08:47:21;38.70;;;28.05;;
1178;SDS011;578;48.408;10.004;2024-03-02T08:49:22;32.73;;;24.07;;
1178;SDS011;578;48.408;10.004;2024-03-02T08:51:23;38.15;;;26.98;;
1178;SDS011;578;48.408;10.004;2024-03-02T08:53:26;34.87;;;25.07;;
1178;SDS011;578;48.408;10.004;2024-03-02T08:55:27;33.85;;;25.48;;
1178;SDS011;578;48.408;10.004;2024-03-02T08:57:29;30.25;;;23.20;;
1178;SDS011;578;48.408;10.004;2024-03-02T08:59:31;32.72;;;24.77;;
1178;SDS011;578;48.408;10.004;2024-03-02T09:01:33;32.90;;;25.80;;
1178;SDS011;578;48.408;10.004;2024-03-02T09:03:34;34.90;;;26.02;;
1178;SDS011;578;48.408;10.004;2024-03-02T09:05:37;30.80;;;23.65;;
1178;SDS011;578;48.408;10.004;2024-03-02T09:07:39;33.30;;;26.02;;
1178;SDS011;578;48.408;10.004;2024-03-02T09:09:42;34.97;;;24.63;;
1178;SDS011;578;48.408;10.004;2024-03-02T09:11:44;31.73;;;25.42;;
1178;SDS011;578;48.408;10.004;2024-03-02T09:13:47;31.55;;;26.05;;
1178;SDS011;578;48.408;10.004;2024-03-02T09:15:49;30.70;;;23.50;;
1178;SDS011;578;48.408;10.004;2024-03-02T09:17:51;28.70;;;23.83;;
1178;SDS011;578;48.408;10.004;2024-03-02T09:19:51;28.13;;;24.10;;
1178;SDS011;578;48.408;10.004;2024-03-02T09:21:53;26.38;;;22.65;;
1178;SDS011;578;48.408;10.004;2024-03-02T09:23:56;23.88;;;19.77;;
1178;SDS011;578;48.408;10.004;2024-03-02T09:25:58;24.17;;;20.00;;
1178;SDS011;578;48.408;10.004;2024-03-02T09:28:00;28.77;;;21.00;;
1178;SDS011;578;48.408;10.004;2024-03-02T09:30:03;26.80;;;23.90;;
1178;SDS011;578;48.408;10.004;2024-03-02T09:32:06;27.38;;;21.50;;
1178;SDS011;578;48.408;10.004;2024-03-02T09:34:09;23.13;;;20.58;;
1178;SDS011;578;48.408;10.004;2024-03-02T09:36:17;21.98;;;18.70;;
1178;SDS011;578;48.408;10.004;2024-03-02T09:38:18;21.88;;;19.58;;
1178;SDS011;578;48.408;10.004;2024-03-02T09:40:21;19.95;;;17.92;;
1178;SDS011;578;48.408;10.004;2024-03-02T09:42:25;20.10;;;18.10;;
1178;SDS011;578;48.408;10.004;2024-03-02T09:44:27;20.40;;;17.60;;
1178;SDS011;578;48.408;10.004;2024-03-02T09:46:29;20.52;;;18.33;;
1178;SDS011;578;48.408;10.004;2024-03-02T09:48:30;19.77;;;17.77;;
1178;SDS011;578;48.408;10.004;2024-03-02T09:50:32;21.45;;;19.25;;
1178;SDS011;578;48.408;10.004;2024-03-02T09:52:34;20.23;;;18.05;;
1178;SDS011;578;48.408;10.004;2024-03-02T09:54:37;20.83;;;18.33;;
1178;SDS011;578;48.408;10.004;2024-03-02T09:56:38;18.48;;;16.67;;
1178;SDS011;578;48.408;10.004;2024-03-02T09:58:41;19.02;;;17.02;;
1178;SDS011;578;48.408;10.004;2024-03-02T10:00:44;18.95;;;17.08;;
1178;SDS011;578;48.408;10.004;2024-03-02T10:02:45;17.63;;;15.77;;
1178;SDS011;578;48.408;10.004;2024-03-02T10:04:49;17.67;;;15.95;;
1178;SDS011;578;48.408;10.004;2024-03-02T10:06:50;19.27;;;16.97;;
1178;SDS011;578;48.408;10.004;2024-03-02T10:08:53;18.90;;;16.97;;
1178;SDS011;578;48.408;10.004;2024-03-02T10:10:55;19.05;;;17.05;;
1178;SDS011;578;48.408;10.004;2024-03-02T10:12:59;18.88;;;16.95;;
1178;SDS011;578;48.408;10.004;2024-03-02T10:15:07;18.25;;;16.35;;
1178;SDS011;578;48.408;10.004;2024-03-02T10:17:10;19.73;;;17.20;;
1178;SDS011;578;48.408;10.004;2024-03-02T10:19:15;17.92;;;16.23;;
1178;SDS011;578;48.408;10.004;2024-03-02T10:21:18;22.33;;;18.27;;
1178;SDS011;578;48.408;10.004;2024-03-02T10:23:19;18.73;;;16.50;;
1178;SDS011;578;48.408;10.004;2024-03-02T10:25:28;18.50;;;16.60;;
1178;SDS011;578;48.408;10.004;2024-03-02T10:27:30;19.05;;;17.05;;
1178;SDS011;578;48.408;10.004;2024-03-02T10:29:39;17.30;;;15.50;;
1178;SDS011;578;48.408;10.004;2024-03-02T10:31:42;18.17;;;16.42;;
1178;SDS011;578;48.408;10.004;2024-03-02T10:33:45;16.65;;;14.95;;
1178;SDS011;578;48.408;10.004;2024-03-02T10:35:47;16.48;;;14.93;;
1178;SDS011;578;48.408;10.004;2024-03-02T10:37:51;16.05;;;14.45;;
1178;SDS011;578;48.408;10.004;2024-03-02T10:39:52;16.58;;;14.93;;
1178;SDS011;578;48.408;10.004;2024-03-02T10:41:54;17.23;;;15.63;;
1178;SDS011;578;48.408;10.004;2024-03-02T10:43:57;17.25;;;15.45;;
1178;SDS011;578;48.408;10.004;2024-03-02T10:46:00;18.08;;;16.27;;
1178;SDS011;578;48.408;10.004;2024-03-02T10:48:03;19.98;;;17.80;;
1178;SDS011;578;48.408;10.004;2024-03-02T10:50:07;18.53;;;16.70;;
1178;SDS011;578;48.408;10.004;2024-03-02T10:52:09;17.98;;;16.25;;
1178;SDS011;578;48.408;10.004;2024-03-02T10:54:11;17.87;;;16.07;;
1178;SDS011;578;48.408;10.004;2024-03-02T10:56:11;19.70;;;17.63;;
1178;SDS011;578;48.408;10.004;2024-03-02T10:58:17;18.83;;;17.00;;
1178;SDS011;578;48.408;10.004;2024-03-02T11:00:20;18.27;;;16.47;;
1178;SDS011;578;48.408;10.004;2024-03-02T11:02:30;19.38;;;17.65;;
1178;SDS011;578;48.408;10.004;2024-03-02T11:04:34;20.33;;;18.35;;
1178;SDS011;578;48.408;10.004;2024-03-02T11:06:36;21.60;;;19.33;;
1178;SDS011;578;48.408;10.004;2024-03-02T11:08:41;20.00;;;18.00;;
1178;SDS011;578;48.408;10.004;2024-03-02T11:10:45;20.77;;;18.70;;
1178;SDS011;578;48.408;10.004;2024-03-02T11:12:53;19.50;;;17.60;;
1178;SDS011;578;48.408;10.004;2024-03-02T11:15:00;18.63;;;16.73;;
1178;SDS011;578;48.408;10.004;2024-03-02T11:17:06;19.17;;;17.47;;
1178;SDS011;578;48.408;10.004;2024-03-02T11:19:08;19.45;;;17.52;;
1178;SDS011;578;48.408;10.004;2024-03-02T11:21:13;18.17;;;16.45;;
1178;SDS011;578;48.408;10.004;2024-03-02T11:23:15;17.02;;;15.32;;
1178;SDS011;578;48.408;10.004;2024-03-02T11:25:23;18.90;;;16.90;;
1178;SDS011;578;48.408;10.004;2024-03-02T11:30:01;17.60;;;15.70;;
1178;SDS011;578;48.408;10.004;2024-03-02T11:32:03;15.83;;;14.33;;
1178;SDS011;578;48.408;10.004;2024-03-02T11:34:16;15.82;;;14.32;;
1178;SDS011;578;48.408;10.004;2024-03-02T11:36:20;17.42;;;15.75;;
1178;SDS011;578;48.408;10.004;2024-03-02T11:38:22;13.75;;;12.45;;
1178;SDS011;578;48.408;10.004;2024-03-02T11:40:25;15.43;;;13.25;;
1178;SDS011;578;48.408;10.004;2024-03-02T11:42:27;12.77;;;11.45;;
1178;SDS011;578;48.408;10.004;2024-03-02T11:44:28;13.93;;;12.63;;
1178;SDS011;578;48.408;10.004;2024-03-02T11:46:29;12.77;;;11.60;;
1178;SDS011;578;48.408;10.004;2024-03-02T11:48:31;12.25;;;11.15;;
1178;SDS011;578;48.408;10.004;2024-03-02T11:50:34;13.50;;;12.30;;
1178;SDS011;578;48.408;10.004;2024-03-02T11:52:39;11.90;;;10.90;;
1178;SDS011;578;48.408;10.004;2024-03-02T11:54:43;12.77;;;11.57;;
1178;SDS011;578;48.408;10.004;2024-03-02T11:56:51;9.48;;;8.65;;
1178;SDS011;578;48.408;10.004;2024-03-02T11:58:54;9.40;;;8.50;;
1178;SDS011;578;48.408;10.004;2024-03-02T12:00:55;8.13;;;7.43;;
1178;SDS011;578;48.408;10.004;2024-03-02T12:02:59;7.23;;;6.63;;
1178;SDS011;578;48.408;10.004;2024-03-02T12:05:02;7.47;;;6.77;;
1178;SDS011;578;48.408;10.004;2024-03-02T12:07:05;8.57;;;7.85;;
1178;SDS011;578;48.408;10.004;2024-03-02T12:09:08;9.52;;;8.57;;
1178;SDS011;578;48.408;10.004;2024-03-02T12:11:14;9.57;;;8.60;;
1178;SDS011;578;48.408;10.004;2024-03-02T12:13:16;7.50;;;6.90;;
1178;SDS011;578;48.408;10.004;2024-03-02T12:15:16;9.60;;;8.63;;
1178;SDS011;578;48.408;10.004;2024-03-02T12:17:18;9.60;;;8.70;;
1178;SDS011;578;48.408;10.004;2024-03-02T12:19:20;11.93;;;10.73;;
1178;SDS011;578;48.408;10.004;2024-03-02T12:21:22;11.70;;;10.60;;